Alton, Kansas
Current Conditions -  °F | °C
As of 7:53 AM on Monday 24 Nov 2014 (Local Time) from KRSL Reporting Station
Clear Clear  
Wind Chill: -4°   Ceiling: Unl
Heat Index:   Visibility: 10mi
Dew Point: -7°   Wind: 18mph
Humidity: 50%   Direction: 300°WNW
Pressure: 29.8"   Gusts: NA
Location:  39.47°N, 98.95°W
Report Text: KRSL 241353Z AUTO 30016KT 10SM CLR 02/M07 A2980 RMK AO2 SLP101 T00221072
Loading
Personal Weather Stations






























Interactive Weather Map New forecast layout! Learn more

10-Day Weather Forecast

Advertisements
Track Severe Weather on mobile